• Join FlightAware (Why Join?)
  • Login
  • US Flag 
03:43AM EDT


 

Airport Tracker/Info


-or-


 

Live Flight TrackerFlight Track Log ✈ SWA962 ✈ 12-Jun-2013 ✈ KBNA - KGSP

Flight Track Log - Related Links

Times and Time Zones

All times are in EDT time to prevent confusion due to time zone crossing. See the SWA962 flight status page for this flight to view local times or setup timezone preferences in your user account.

Time Position Orientation Groundspeed Altitude Reporting Facility
EDT Latitude Longitude Course Direction KTS MPH feet Rate Location/Type
06:12PM 36.0500 -86.6500 152° Southeast 219 252 4,000  Level Nashville TRACON
06:13PM 36.0000 -86.5833 133° Southeast 245 282 7,000 2,880 Climbing Nashville TRACON
06:14PM 36.0061 -86.4747 86° East 306 352 10,600 2,760 Climbing Memphis Center
06:15PM 36.0253 -86.3583 78° East 329 379 13,300 3,000 Climbing Memphis Center
06:16PM 36.0461 -86.2317 78° East 359 413 16,700 3,240 Climbing Memphis Center
06:17PM 36.0667 -86.1022 79° East 377 434 19,800 2,820 Climbing Memphis Center
06:18PM 36.0614 -85.9511 92° East 387 445 22,400 2,700 Climbing Memphis Center
06:21PM 36.0378 -85.6050 95° East 419 482 29,000 1,920 Climbing Atlanta Center
06:22PM 36.0253 -85.4483 96° East 437 503 29,000  Level Atlanta Center
06:23PM 36.0144 -85.2914 95° East 448 516 29,000  Level Atlanta Center
06:24PM 36.0053 -85.1606 95° East 448 516 29,000  Level Atlanta Center
06:25PM 35.9961 -85.0139 94° East 436 502 29,000  Level Atlanta Center
06:26PM 35.9867 -84.8650 94° East 430 495 29,000  Level Atlanta Center
06:27PM 35.9731 -84.7161 96° East 430 495 29,000  Level Atlanta Center
06:28PM 35.9592 -84.5647 96° East 430 495 29,000  Level Atlanta Center
06:29PM 35.9472 -84.4133 96° East 435 501 29,000 -360 Level Atlanta Center
06:30PM 35.9350 -84.2619 96° East 440 506 28,300 -900 Descending Atlanta Center
06:31PM 35.9228 -84.1183 96° East 435 501 27,200 -1,080 Descending Atlanta Center
06:32PM 35.9122 -83.9772 95° East 425 489 26,200 -1,020 Descending Atlanta Center
06:33PM 35.8953 -83.8336 98° East 425 489 25,200 -960 Descending Atlanta Center
06:34PM 35.8764 -83.6800 99° East 425 489 24,300 -840 Descending Atlanta Center
06:35PM 35.8569 -83.5417 100° East 425 489 23,600 -660 Descending Atlanta Center
06:36PM 35.8397 -83.4086 99° East 407 468 23,000 -300 Descending Atlanta Center
06:37PM 35.8203 -83.2756 100° East 401 461 23,000  Level Atlanta Center
06:38PM 35.7983 -83.1400 101° East 395 455 23,000 -600 Level Atlanta Center
06:39PM 35.7661 -83.0100 107° East 388 447 21,900 -1,980 Descending Atlanta Center
06:40PM 35.7086 -82.8903 121° Southeast 394 453 19,100 -1,500 Descending Atlanta Center
06:41PM 35.6575 -82.7786 119° Southeast 389 448 19,000 -900 Descending Atlanta Center
06:42PM 35.6150 -82.6900 121° Southeast 362 417 17,400 -2,160 Descending Atlanta Center
06:43PM 35.5617 -82.5886 123° Southeast 348 400 14,700 -2,340 Descending Atlanta Center
06:44PM 35.5122 -82.4850 120° Southeast 348 400 12,800 -1,680 Descending Atlanta Center
06:46PM 35.4053 -82.2908 124° Southeast 348 400 9,800 -1,500 Descending Atlanta Center
06:47PM 35.3172 -82.2569 163° South 301 346 8,300 -1,500 Descending Atlanta Center
06:48PM 35.2336 -82.2358 168° South 306 352 6,800 -1,620 Descending Atlanta Center
06:49PM 35.1558 -82.2122 166° South 295 339 5,100 -1,440 Descending Atlanta Center
06:50PM 35.0847 -82.1908 166° South 289 333 4,000 -720 Descending Atlanta Center
06:51PM 35.0239 -82.1744 168° South 250 288 3,700 -600 Descending Atlanta Center
06:52PM 34.9861 -82.1653 169° South 204 235 2,900 -900 Descending Atlanta Center
06:53PM 34.9425 -82.1739 189° South 153 176 2,000 -900 Descending Atlanta Center